Historyczne dane pomiarowe

Dodano dane terminowe – wersja testowa.

Dane z okresu 1951-2019

Wersja bazy: 1.34 [2019-03-16, lista zmian], aktualizacja planowana na 2019-04-15

Dane meteo z obszaru Polski uzyskane na podstawie danych udostępnionych przez Instytut Meteorologii i Gospodarki Wodnej – Państwowy Instytut Badawczy.

 

Wybierz Datę:    

       

TemperaturaWilgotnośćWiatrCiśnienieOpadyŚniegCzas trwania zjawisk
 Stacja t tx tn tng RH VA  wxwx mslp ppp RRR   cm mm wxwxwxwxwxwxwx
1983-08-14 13.1 18.5 8.6 5.6 89.8- 5.0 1.7---- 0.0------------
1983-08-13 15.4 21.4 11.6 11.6 90.0- 7.0 4.0---- 3.0------------
1983-08-12 19.9 26.4 13.7 10.3 84.0- 6.0 2.0---- 0.0------------
1983-08-11 17.6 25.7 12.2 10.0 90.8- 3.7 1.3---- 0.0------------
1983-08-10 18.8 26.0 14.0 11.7 82.3- 4.0 1.0---- 0.0------------
1983-08-09 18.8 26.0 14.7 14.1 93.5- 5.7 1.7---- 0.7------------
1983-08-08 15.9 19.2 12.7 13.3 97.0- 8.0 2.3---- 18.7------------
1983-08-07 13.8 16.6 12.3 10.7 96.8- 8.0 1.3---- 0.0------------
1983-08-06 13.8 19.0 11.0 11.0 90.3- 7.3 1.0---- 0.0------------
1983-08-05 12.6 17.3 7.0 4.8 88.5- 6.0 1.3---- 0.1------------
1983-08-04 10.6 11.8 10.2 10.0 93.8- 8.0 3.0---- 0.9------------
1983-08-03 14.6 17.9 10.8 10.8 97.0- 7.7 2.3---- 5.3------------
1983-08-02 20.9 24.5 17.3 16.3 85.3- 7.3 2.3---- 20.5------------
1983-08-01 23.3 32.7 14.0 12.0 58.5- 5.3 2.3---- 0.0------------
1983-07-31 18.9 27.5 8.9 4.9 63.8- 3.7 1.0---- 0.0------------
1983-07-30 20.4 26.5 15.8 15.8 76.5- 5.7 4.0---- 0.0------------
1983-07-29 20.7 26.0 15.3 13.6 79.5- 6.0 3.0---- 2.7------------
1983-07-28 24.7 29.3 20.2 18.7 82.0- 6.7 2.7---- 0.0------------
1983-07-27 25.4 35.5 13.0 10.2 64.5- 5.3 0.0---- 0.0------------
1983-07-26 21.4 30.0 11.1 8.7 72.5- 5.7 1.0---- 0.0------------
1983-07-25 17.3 23.9 10.9 8.5 85.5- 5.0 1.3---- 0.0------------
1983-07-24 18.8 26.2 11.6 8.3 82.8- 6.0 1.3---- 0.4------------
1983-07-23 18.7 25.2 14.5 12.8 76.0- 5.7 1.7---- 0.0------------
1983-07-22 13.7 17.2 9.1 6.3 95.5- 7.0 2.3---- 0.4------------
1983-07-21 12.0 18.2 9.2 9.5 82.5- 5.7 3.3---- 0.0------------
1983-07-20 14.9 23.0 11.4 10.3 96.0- 7.0 2.7---- 3.2------------
1983-07-19 23.0 32.3 17.8 15.8 78.3- 6.3 2.0---- 9.0------------
1983-07-18 25.0 33.7 14.5 11.9 69.8- 5.7 3.0---- 0.5------------
1983-07-17 22.3 29.0 13.7 11.6 79.3- 7.0 1.3---- 0.0------------
1983-07-16 21.3 29.7 13.2 10.5 81.5- 6.3 1.7---- 0.0------------
1983-07-15 19.9 25.5 14.3 13.0 83.5- 5.7 1.7---- 0.0------------
1983-07-14 17.7 22.3 15.2 15.2 91.3- 7.3 3.7---- 0.6------------
1983-07-13 20.6 26.7 15.4 14.6 85.0- 7.0 4.3---- 0.6------------
1983-07-12 19.8 28.0 14.0 14.0 86.5- 6.0 4.3---- 15.4------------
1983-07-11 19.8 29.0 15.6 12.5 87.5- 7.3 1.7---- 13.5------------
1983-07-10 22.0 29.7 12.9 10.7 71.0- 4.3 1.3---- 0.0------------
1983-07-09 20.4 29.2 10.1 7.8 72.0- 4.0 1.0---- 0.0------------
1983-07-08 21.1 29.0 12.3 9.7 68.3- 5.3 2.3---- 0.0------------
1983-07-07 22.8 30.2 14.5 11.7 69.5- 6.3 1.0---- 0.0------------
1983-07-06 21.5 29.0 12.0 10.2 72.0- 7.0 0.7---- 0.0------------
1983-07-05 19.8 26.0 13.0 10.5 75.3- 6.0 1.3---- 0.0------------
1983-07-04 19.4 28.0 11.2 11.0 78.0- 5.0 0.7---- 0.0------------
1983-07-03 18.2 24.6 10.4 10.3 75.5- 6.0 1.0---- 0.0------------
1983-07-02 17.8 22.9 14.6 14.6 84.8- 6.3 3.3---- 0.0------------
1983-07-01 18.1 26.5 10.2 8.4 76.0- 5.7 1.0---- 5.9------------
1983-06-30 17.7 24.0 9.6 7.4 78.3- 6.3 1.7---- 0.0------------
1983-06-29 13.6 20.6 5.7 3.4 74.3- 5.0 1.3---- 0.0------------
1983-06-28 14.7 18.0 11.6 10.2 90.5- 7.3 1.7---- 0.0------------
1983-06-27 20.0 26.7 16.0 13.8 84.8- 6.3 1.7---- 2.5------------
1983-06-26 20.2 26.0 15.3 15.3 83.0- 6.7 2.0---- 0.0------------
1983-06-25 22.6 29.0 15.6 9.9 67.5- 6.7 2.0---- 4.6------------
1983-06-24 18.4 26.5 9.2 7.6 69.5- 5.3 1.3---- 0.0------------
1983-06-23 15.4 21.5 7.8 3.9 65.5- 5.7 1.0---- 0.0------------
1983-06-22 14.8 21.2 9.4 7.7 76.5- 5.7 1.3---- 0.0------------
1983-06-21 18.2 25.0 12.2 9.2 80.3- 4.7 0.7---- 0.0------------
1983-06-20 15.8 22.0 13.2 13.2 94.3- 7.7 1.7---- 2.6------------
1983-06-19 12.3 14.6 11.4 11.4 97.8- 7.7 2.0---- 6.0------------
1983-06-18 11.2 15.5 9.2 9.0 91.0- 7.3 2.7---- 0.5------------
1983-06-17 10.9 13.8 7.6 7.3 85.3- 6.7 3.3---- 0.0------------
1983-06-16 10.6 15.5 8.4 8.4 90.8- 7.3 4.3---- 0.0------------
608.5 ms

 

Źródłem pochodzenia danych jest Instytut Meteorologii i Gospodarki Wodnej – Państwowy Instytut Badawczy. Dane Instytutu Meteorologii i Gospodarki Wodnej – Państwowego Instytutu Badawczego zostały przetworzone.

Dane źródłowe można odnaleźć na stronie https://dane.imgw.pl